Time;durP1;ratioP1;P1;durP2;ratioP2;P2;SDS_P1;SDS_P2;PMS_P1;PMS_P2;Temp;Humidity;BMP_temperature;BMP_pressure;BME280_temperature;BME280_humidity;BME280_pressure;Samples;Min_cycle;Max_cycle;Signal;HPM_P1;HPM_P2
2022/05/11 00:00:18;;;;;;;4.40;2.37;;;17.90;99.90;;;;;;5012830;28;20514;-76
2022/05/11 00:02:45;;;;;;;3.93;2.67;;;17.90;99.90;;;;;;5013531;28;20466;-77
2022/05/11 00:05:15;;;;;;;5.10;2.60;;;17.80;99.90;;;;;;5012701;28;20506;-77
2022/05/11 00:07:42;;;;;;;5.73;2.20;;;17.80;99.90;;;;;;5013139;28;21025;-78
2022/05/11 00:10:12;;;;;;;6.30;2.83;;;17.80;99.90;;;;;;5012759;28;20458;-77
2022/05/11 00:12:39;;;;;;;3.80;2.30;;;17.80;99.90;;;;;;5014163;28;20879;-78
2022/05/11 00:15:07;;;;;;;4.70;2.00;;;17.80;99.90;;;;;;5013741;28;20465;-78
2022/05/11 00:17:34;;;;;;;3.70;2.20;;;17.80;99.90;;;;;;5014469;28;20494;-76
2022/05/11 00:20:01;;;;;;;4.17;2.43;;;17.80;99.90;;;;;;5013512;28;20483;-76
2022/05/11 00:22:29;;;;;;;7.97;2.60;;;17.80;99.90;;;;;;5014573;28;20447;-76
2022/05/11 00:24:56;;;;;;;3.40;2.07;;;17.80;99.90;;;;;;5013943;28;20455;-77
2022/05/11 00:27:23;;;;;;;3.50;2.00;;;17.80;99.90;;;;;;5012965;28;20488;-76
2022/05/11 00:29:50;;;;;;;3.53;1.90;;;17.80;99.90;;;;;;5012824;28;20448;-76
2022/05/11 00:32:17;;;;;;;5.17;1.90;;;17.80;99.90;;;;;;5012776;28;20509;-77
2022/05/11 00:34:44;;;;;;;4.97;2.30;;;17.70;99.90;;;;;;5012791;28;20842;-77
2022/05/11 00:37:10;;;;;;;4.00;1.90;;;17.70;99.90;;;;;;5012710;28;20554;-77
2022/05/11 00:39:39;;;;;;;4.20;2.03;;;17.70;99.90;;;;;;5012218;28;20494;-76
2022/05/11 00:42:07;;;;;;;5.17;2.07;;;17.70;99.90;;;;;;5012548;28;20452;-76
2022/05/11 00:44:33;;;;;;;5.17;2.27;;;17.70;99.90;;;;;;5012815;28;20454;-77
2022/05/11 00:47:04;;;;;;;3.60;1.70;;;17.60;99.90;;;;;;5012418;28;20478;-76
2022/05/11 00:49:34;;;;;;;6.60;2.10;;;17.60;99.90;;;;;;5012046;28;20825;-77
2022/05/11 00:52:05;;;;;;;4.60;2.10;;;17.50;99.90;;;;;;5012372;28;20455;-75
2022/05/11 00:54:35;;;;;;;3.53;2.00;;;17.50;99.90;;;;;;5012446;28;20480;-77
2022/05/11 00:57:07;;;;;;;3.70;1.93;;;17.40;99.90;;;;;;4993009;28;20885;-77
2022/05/11 00:59:38;;;;;;;4.60;2.50;;;17.40;99.90;;;;;;5010218;28;20498;-76
2022/05/11 01:02:06;;;;;;;4.60;1.87;;;17.30;99.90;;;;;;4992630;28;20933;-76
2022/05/11 01:04:36;;;;;;;3.20;1.70;;;17.30;99.90;;;;;;4992788;28;20558;-77
2022/05/11 01:07:05;;;;;;;5.10;2.07;;;17.30;99.90;;;;;;5012125;28;20471;-77
2022/05/11 01:09:32;;;;;;;5.27;2.10;;;17.30;99.90;;;;;;5012027;28;20452;-76
2022/05/11 01:12:02;;;;;;;5.00;2.10;;;17.30;99.90;;;;;;5012829;28;20569;-79
2022/05/11 01:14:35;;;;;;;4.60;2.20;;;17.30;99.90;;;;;;5012246;28;20461;-76
2022/05/11 01:17:02;;;;;;;2.93;1.70;;;17.30;99.90;;;;;;5011815;28;20486;-76
2022/05/11 01:19:31;;;;;;;5.10;2.17;;;17.40;99.90;;;;;;5011604;28;20529;-76
2022/05/11 01:22:03;;;;;;;7.83;2.17;;;17.40;99.90;;;;;;5011868;28;20457;-76
2022/05/11 01:24:35;;;;;;;3.97;2.10;;;17.40;99.90;;;;;;5011777;28;20470;-76
2022/05/11 01:27:31;;;;;;;3.43;2.27;;;17.40;99.90;;;;;;5011738;28;20488;-77
2022/05/11 01:30:03;;;;;;;5.20;2.07;;;17.50;99.90;;;;;;5006524;28;20450;-76
2022/05/11 01:32:30;;;;;;;4.20;2.27;;;17.50;99.90;;;;;;5011552;28;20472;-76
2022/05/11 01:35:14;;;;;;;3.00;1.70;;;17.50;99.90;;;;;;5011929;28;20450;-76
2022/05/11 01:37:50;;;;;;;4.70;1.80;;;17.50;99.90;;;;;;5009939;28;20507;-77
2022/05/11 01:40:18;;;;;;;4.23;2.47;;;17.50;99.90;;;;;;5011408;28;21021;-76
2022/05/11 01:42:44;;;;;;;5.90;2.60;;;17.60;99.90;;;;;;5011972;28;20450;-76
2022/05/11 01:45:12;;;;;;;7.03;2.13;;;17.50;99.90;;;;;;5011392;28;20963;-76
2022/05/11 01:47:39;;;;;;;4.27;2.57;;;17.50;99.90;;;;;;5011631;28;20477;-77
2022/05/11 01:50:06;;;;;;;4.90;2.43;;;17.50;99.90;;;;;;5011160;28;20490;-76
2022/05/11 01:52:33;;;;;;;5.77;2.23;;;17.60;99.90;;;;;;4992484;28;20904;-76
2022/05/11 01:55:00;;;;;;;4.17;2.30;;;17.60;99.90;;;;;;5007146;28;20461;-77
2022/05/11 01:57:28;;;;;;;4.53;2.23;;;17.60;99.90;;;;;;5011642;28;20474;-76
2022/05/11 01:59:55;;;;;;;4.53;2.03;;;17.50;99.90;;;;;;5011481;28;20487;-76
2022/05/11 02:02:22;;;;;;;4.47;2.30;;;17.60;99.90;;;;;;5011741;28;20469;-77
2022/05/11 02:07:50;;;;;;;7.37;2.50;;;17.50;99.90;;;;;;5011226;28;20510;-77
2022/05/11 02:10:18;;;;;;;3.93;2.07;;;17.60;99.90;;;;;;5011163;28;20452;-76
2022/05/11 02:12:46;;;;;;;5.43;2.17;;;17.50;99.90;;;;;;5011550;28;20451;-77
2022/05/11 02:15:14;;;;;;;4.73;2.50;;;17.50;99.90;;;;;;5014081;28;20458;-77
2022/05/11 02:17:41;;;;;;;3.57;2.10;;;17.40;99.90;;;;;;5014674;28;20907;-76
2022/05/11 02:20:09;;;;;;;4.43;2.20;;;17.30;99.90;;;;;;5014623;28;20492;-77
2022/05/11 02:22:36;;;;;;;5.53;2.77;;;17.30;99.90;;;;;;5015368;28;20456;-77
2022/05/11 02:25:04;;;;;;;4.57;2.37;;;17.30;99.90;;;;;;5015005;28;21027;-77
2022/05/11 02:27:32;;;;;;;3.70;2.20;;;17.30;99.90;;;;;;5014908;28;20475;-77
2022/05/11 02:30:00;;;;;;;7.83;2.03;;;17.30;99.90;;;;;;5014612;28;20821;-77
2022/05/11 02:32:28;;;;;;;3.50;1.97;;;17.20;99.90;;;;;;5015415;28;20541;-76
2022/05/11 02:35:13;;;;;;;4.10;2.40;;;17.10;99.90;;;;;;5014793;28;20455;-77
2022/05/11 02:37:41;;;;;;;4.50;1.83;;;17.10;99.90;;;;;;5015204;28;20697;-76
2022/05/11 02:40:09;;;;;;;3.77;1.60;;;17.00;99.90;;;;;;5014020;28;20496;-76
2022/05/11 02:42:36;;;;;;;5.73;1.93;;;17.00;99.90;;;;;;5015136;28;20541;-76
2022/05/11 02:45:05;;;;;;;5.20;1.53;;;17.00;99.90;;;;;;5014668;28;20458;-77
2022/05/11 02:47:32;;;;;;;6.03;2.23;;;17.00;99.90;;;;;;5014502;28;20486;-76
2022/05/11 02:49:58;;;;;;;4.20;2.13;;;17.00;99.90;;;;;;5014433;28;20966;-76
2022/05/11 02:52:25;;;;;;;9.30;2.10;;;17.00;99.90;;;;;;5014594;28;20457;-76
2022/05/11 02:54:52;;;;;;;5.50;2.43;;;17.00;99.90;;;;;;5014702;28;20831;-75
2022/05/11 02:57:19;;;;;;;3.50;2.20;;;17.00;99.90;;;;;;5014009;28;20876;-77
2022/05/11 02:59:48;;;;;;;3.90;2.13;;;17.00;99.90;;;;;;5014609;28;20498;-76
2022/05/11 03:02:16;;;;;;;5.00;1.90;;;17.00;99.90;;;;;;5014207;28;20465;-77
2022/05/11 03:04:43;;;;;;;4.40;2.17;;;17.00;99.90;;;;;;5015141;28;20452;-76
2022/05/11 03:07:09;;;;;;;4.40;1.83;;;16.90;99.90;;;;;;5013936;28;20471;-76
2022/05/11 03:09:36;;;;;;;4.37;2.03;;;16.90;99.90;;;;;;5014419;28;20450;-76
2022/05/11 03:12:03;;;;;;;4.33;2.27;;;16.90;99.90;;;;;;5014345;28;20447;-76
2022/05/11 03:14:30;;;;;;;3.40;2.07;;;16.80;99.90;;;;;;5014458;28;20808;-75
2022/05/11 03:16:57;;;;;;;4.00;2.00;;;16.80;99.90;;;;;;5014378;28;20503;-77
2022/05/11 03:19:25;;;;;;;3.57;2.00;;;16.80;99.90;;;;;;5016175;28;20557;-77
2022/05/11 03:21:52;;;;;;;6.30;2.80;;;16.90;99.90;;;;;;5016966;28;20478;-77
2022/05/11 03:24:19;;;;;;;3.57;2.03;;;16.90;99.90;;;;;;5017355;28;20454;-77
2022/05/11 03:26:47;;;;;;;4.43;2.47;;;16.80;99.90;;;;;;5016176;28;20554;-78
2022/05/11 03:29:14;;;;;;;3.30;2.07;;;16.90;99.90;;;;;;5016844;28;20470;-78
2022/05/11 03:34:36;;;;;;;4.37;2.30;;;16.80;99.90;;;;;;5016658;28;20455;-77
2022/05/11 03:34:38;;;;;;;3.30;1.80;;;16.80;99.90;;;;;;5015069;28;20449;-77
2022/05/11 03:37:06;;;;;;;4.03;2.23;;;16.80;99.90;;;;;;5013815;28;21009;-78
2022/05/11 03:39:34;;;;;;;3.57;1.70;;;16.80;99.90;;;;;;5014085;28;20465;-78
2022/05/11 03:42:01;;;;;;;3.43;1.90;;;16.70;99.90;;;;;;5014307;28;21246;-78
2022/05/11 03:44:29;;;;;;;4.83;1.90;;;16.70;99.90;;;;;;5014333;28;20449;-76
2022/05/11 03:46:56;;;;;;;6.13;2.53;;;16.70;99.90;;;;;;5013721;28;20481;-79
2022/05/11 03:49:23;;;;;;;3.40;2.00;;;16.70;99.90;;;;;;5013958;28;20838;-79
2022/05/11 03:51:52;;;;;;;4.50;2.17;;;16.80;99.90;;;;;;5013718;28;20451;-78
2022/05/11 03:54:19;;;;;;;3.70;2.43;;;16.80;99.90;;;;;;5013665;28;20464;-77
2022/05/11 03:56:46;;;;;;;4.37;1.83;;;16.80;99.90;;;;;;5013485;28;20863;-78
2022/05/11 03:59:13;;;;;;;7.83;2.50;;;16.90;99.90;;;;;;5012734;28;20829;-77
2022/05/11 04:01:40;;;;;;;4.40;2.23;;;16.90;99.90;;;;;;5013532;28;20480;-78
2022/05/11 04:04:07;;;;;;;6.67;2.17;;;16.90;99.90;;;;;;5012263;28;20552;-78
2022/05/11 04:06:34;;;;;;;4.53;2.10;;;17.00;99.90;;;;;;5013454;28;20480;-77
2022/05/11 04:09:02;;;;;;;3.43;1.80;;;17.00;99.90;;;;;;5013026;28;20902;-77
2022/05/11 04:11:33;;;;;;;3.63;2.27;;;17.00;99.90;;;;;;5013351;28;20864;-76
2022/05/11 04:14:00;;;;;;;3.67;1.77;;;17.10;99.90;;;;;;5013323;28;20453;-78
2022/05/11 04:16:36;;;;;;;3.60;1.90;;;17.10;99.90;;;;;;5012869;28;21078;-78
2022/05/11 04:19:03;;;;;;;4.37;2.50;;;17.10;99.90;;;;;;5013383;28;20548;-79
2022/05/11 04:21:30;;;;;;;3.27;1.83;;;17.10;99.90;;;;;;5012046;28;20486;-78
2022/05/11 04:23:57;;;;;;;3.30;1.63;;;17.10;99.90;;;;;;5013655;28;20461;-77
2022/05/11 04:26:26;;;;;;;3.60;2.00;;;17.20;99.90;;;;;;5012869;28;21012;-77
2022/05/11 04:28:53;;;;;;;3.50;1.90;;;17.20;99.90;;;;;;5013667;28;20458;-78
2022/05/11 04:31:19;;;;;;;6.00;1.90;;;17.20;99.90;;;;;;5013571;28;20485;-78
2022/05/11 04:33:47;;;;;;;7.87;2.30;;;17.30;99.90;;;;;;5013610;28;20460;-78
2022/05/11 04:36:14;;;;;;;4.37;2.40;;;17.30;99.90;;;;;;5012777;28;20481;-77
2022/05/11 04:38:41;;;;;;;10.83;2.53;;;17.40;99.90;;;;;;5012693;28;20538;-77
2022/05/11 04:41:08;;;;;;;3.00;1.70;;;17.40;99.90;;;;;;5011750;28;20493;-77
2022/05/11 04:43:36;;;;;;;3.27;2.00;;;17.40;99.90;;;;;;5013229;28;20492;-76
2022/05/11 04:46:03;;;;;;;3.23;1.80;;;17.30;99.90;;;;;;5013312;28;20469;-77
2022/05/11 04:48:29;;;;;;;3.43;2.20;;;17.30;99.90;;;;;;5012615;28;20856;-78
2022/05/11 04:51:01;;;;;;;6.50;2.03;;;17.30;99.90;;;;;;5012676;28;20455;-78
2022/05/11 04:53:28;;;;;;;3.70;2.20;;;17.20;99.90;;;;;;5013046;28;20471;-77
2022/05/11 04:55:55;;;;;;;3.23;1.97;;;17.20;99.90;;;;;;5012546;28;20450;-77
2022/05/11 04:58:22;;;;;;;3.87;2.07;;;17.10;99.90;;;;;;5012984;28;20453;-76
2022/05/11 05:00:50;;;;;;;6.17;2.40;;;17.10;99.90;;;;;;5011877;28;20494;-77
2022/05/11 05:03:17;;;;;;;3.90;2.20;;;17.10;99.90;;;;;;5012356;28;20524;-76
2022/05/11 05:05:44;;;;;;;3.07;2.00;;;17.00;99.90;;;;;;5011918;28;20465;-76
2022/05/11 05:08:11;;;;;;;3.20;2.13;;;17.10;99.90;;;;;;5012412;28;20483;-76
2022/05/11 05:10:38;;;;;;;4.30;2.20;;;17.00;99.90;;;;;;4994063;28;20453;-77
2022/05/11 05:13:07;;;;;;;4.70;2.00;;;17.10;99.90;;;;;;5000179;28;20458;-75
2022/05/11 05:15:35;;;;;;;4.33;2.60;;;17.20;99.90;;;;;;5003178;28;20450;-77
2022/05/11 05:18:03;;;;;;;4.80;2.30;;;17.20;99.90;;;;;;5004715;28;20484;-77
2022/05/11 05:20:30;;;;;;;3.83;2.10;;;17.20;99.90;;;;;;5008663;28;20457;-77
2022/05/11 05:22:57;;;;;;;5.30;2.93;;;17.30;99.90;;;;;;5005276;28;20480;-77
2022/05/11 05:25:25;;;;;;;5.50;2.63;;;17.30;99.90;;;;;;5004876;28;20457;-77
2022/05/11 05:27:53;;;;;;;6.00;2.50;;;17.50;99.90;;;;;;5006558;28;20485;-77
2022/05/11 05:33:06;;;;;;;10.43;2.63;;;17.70;99.90;;;;;;5005450;28;20517;-76
2022/05/11 05:35:33;;;;;;;4.07;2.50;;;17.90;99.90;;;;;;5002416;28;20458;-76
2022/05/11 05:38:00;;;;;;;7.50;2.73;;;18.10;99.90;;;;;;5002740;28;20476;-77
2022/05/11 05:40:27;;;;;;;6.37;2.50;;;18.20;99.90;;;;;;5006119;28;20459;-76
2022/05/11 05:42:54;;;;;;;4.60;2.40;;;18.20;99.90;;;;;;5002091;28;20491;-77
2022/05/11 05:45:21;;;;;;;4.50;2.40;;;18.40;99.90;;;;;;5001563;28;20451;-77
2022/05/11 05:47:48;;;;;;;4.60;2.00;;;18.60;99.90;;;;;;5003680;28;20484;-78
2022/05/11 05:50:16;;;;;;;4.03;2.30;;;18.80;99.90;;;;;;5002974;28;20468;-78
2022/05/11 05:52:49;;;;;;;3.93;2.20;;;18.80;99.90;;;;;;4998434;28;20546;-78
2022/05/11 05:55:21;;;;;;;5.87;3.10;;;18.80;99.90;;;;;;5018663;28;20464;-78
2022/05/11 05:57:48;;;;;;;4.37;2.50;;;18.80;99.90;;;;;;5018072;28;20484;-78
2022/05/11 06:00:16;;;;;;;4.77;2.63;;;18.70;99.90;;;;;;5019060;28;20500;-77
2022/05/11 06:02:43;;;;;;;4.63;2.40;;;18.60;99.90;;;;;;5018635;28;20596;-78
2022/05/11 06:05:11;;;;;;;4.73;2.87;;;18.50;99.90;;;;;;5018019;28;20456;-78
2022/05/11 06:07:40;;;;;;;6.90;2.37;;;18.40;99.90;;;;;;5017213;28;20510;-78
2022/05/11 06:10:07;;;;;;;4.80;2.27;;;18.30;99.90;;;;;;5012082;28;20459;-78
2022/05/11 06:12:34;;;;;;;4.90;2.60;;;18.30;99.90;;;;;;5015255;28;20448;-78
2022/05/11 06:15:01;;;;;;;9.00;2.83;;;18.20;99.90;;;;;;5016935;28;20461;-79
2022/05/11 06:17:29;;;;;;;5.40;2.90;;;18.20;99.90;;;;;;5016640;28;20523;-78
2022/05/11 06:19:56;;;;;;;4.23;2.50;;;18.30;99.90;;;;;;5014708;28;20466;-78
2022/05/11 06:22:23;;;;;;;4.60;2.73;;;18.30;99.90;;;;;;5006617;28;20877;-79
2022/05/11 06:24:52;;;;;;;5.30;3.00;;;18.40;99.90;;;;;;5015053;28;20480;-78
2022/05/11 06:27:20;;;;;;;6.00;3.03;;;18.50;99.90;;;;;;5012392;28;20572;-79
2022/05/11 06:29:52;;;;;;;10.07;3.57;;;18.40;99.90;;;;;;5006683;28;20456;-77
2022/05/11 06:32:19;;;;;;;5.77;4.27;;;18.50;99.90;;;;;;5009663;28;20466;-78
2022/05/11 06:34:46;;;;;;;5.90;3.80;;;18.50;99.90;;;;;;5010833;28;20462;-79
2022/05/11 06:37:15;;;;;;;7.40;3.97;;;18.70;99.90;;;;;;5003711;28;20475;-77
2022/05/11 06:39:42;;;;;;;5.80;3.97;;;18.70;99.90;;;;;;5012148;28;20967;-77
2022/05/11 06:42:12;;;;;;;6.10;4.23;;;18.80;99.90;;;;;;5011579;28;20494;-78
2022/05/11 06:44:40;;;;;;;6.60;3.70;;;18.80;99.90;;;;;;5008463;28;20465;-78
2022/05/11 06:47:07;;;;;;;6.77;4.33;;;18.90;99.90;;;;;;5012499;28;20472;-78
2022/05/11 06:49:34;;;;;;;8.23;5.03;;;19.00;99.90;;;;;;5013551;28;20971;-78
2022/05/11 06:52:02;;;;;;;11.40;4.60;;;19.00;99.90;;;;;;5011334;28;20452;-78
2022/05/11 06:59:59;;;;;;;8.00;5.57;;;19.30;99.90;;;;;;5007804;28;20439;-77
2022/05/11 07:02:26;;;;;;;6.40;4.67;;;19.30;99.90;;;;;;5008600;28;20531;-77
2022/05/11 07:04:56;;;;;;;8.90;5.17;;;19.40;99.90;;;;;;5006945;28;20837;-77
2022/05/11 07:07:25;;;;;;;7.20;3.97;;;19.40;99.90;;;;;;5009416;28;21050;-78
2022/05/11 07:09:52;;;;;;;9.83;6.30;;;19.60;99.90;;;;;;5013828;28;20624;-77
2022/05/11 07:12:21;;;;;;;10.73;6.00;;;19.60;99.90;;;;;;5018303;28;20482;-77
2022/05/11 07:14:50;;;;;;;9.27;6.30;;;19.70;99.90;;;;;;5017693;28;20965;-78
2022/05/11 07:17:30;;;;;;;9.77;6.40;;;19.70;99.90;;;;;;5013026;28;20546;-77
2022/05/11 07:19:58;;;;;;;8.10;5.57;;;19.90;99.90;;;;;;5016033;28;20460;-77
2022/05/11 07:22:25;;;;;;;8.73;5.37;;;19.90;99.90;;;;;;5008849;28;20517;-78
2022/05/11 07:24:52;;;;;;;6.87;5.50;;;20.00;99.90;;;;;;5013611;28;20462;-77
2022/05/11 07:27:21;;;;;;;11.00;7.40;;;20.00;99.90;;;;;;5010492;28;20513;-77
2022/05/11 07:29:51;;;;;;;12.80;6.17;;;20.00;99.90;;;;;;5009207;28;20465;-77
2022/05/11 07:32:17;;;;;;;10.40;5.53;;;20.10;99.90;;;;;;5006466;28;20560;-78
2022/05/11 07:34:44;;;;;;;9.27;5.83;;;20.00;99.90;;;;;;5012750;28;20462;-78
2022/05/11 07:37:11;;;;;;;8.33;5.17;;;20.10;99.90;;;;;;5008257;28;20987;-78
2022/05/11 07:39:38;;;;;;;9.40;4.77;;;20.10;99.90;;;;;;5009420;28;20992;-78
2022/05/11 07:42:05;;;;;;;7.47;4.70;;;20.30;99.90;;;;;;5012410;28;20596;-78
2022/05/11 07:44:34;;;;;;;5.93;4.53;;;20.40;99.90;;;;;;5009256;28;20845;-77
2022/05/11 07:47:01;;;;;;;7.30;4.70;;;20.40;99.90;;;;;;5008667;28;20482;-80
2022/05/11 07:49:28;;;;;;;6.70;4.60;;;20.50;99.90;;;;;;5006549;28;20547;-79
2022/05/11 07:51:55;;;;;;;8.97;5.40;;;20.50;99.90;;;;;;5006286;28;20460;-79
2022/05/11 07:54:22;;;;;;;7.87;4.93;;;20.60;99.90;;;;;;5011118;28;20454;-78
2022/05/11 07:59:57;;;;;;;8.20;5.00;;;20.80;99.90;;;;;;5015601;28;20488;-79
2022/05/11 08:02:27;;;;;;;7.80;5.40;;;21.00;99.90;;;;;;5006815;28;20477;-78
2022/05/11 08:04:58;;;;;;;8.87;4.93;;;21.10;99.90;;;;;;5011262;28;20481;-79
2022/05/11 08:07:27;;;;;;;6.63;4.57;;;21.10;99.90;;;;;;5010741;28;20469;-79
2022/05/11 08:09:58;;;;;;;8.03;3.67;;;21.20;99.90;;;;;;5007879;28;20891;-79
2022/05/11 08:12:26;;;;;;;9.53;4.43;;;21.40;99.90;;;;;;5011458;28;20938;-79
2022/05/11 08:14:54;;;;;;;6.30;4.00;;;21.50;99.90;;;;;;5012536;28;20469;-78
2022/05/11 08:17:29;;;;;;;6.47;3.97;;;21.70;99.90;;;;;;5004085;28;20562;-79
2022/05/11 08:19:56;;;;;;;7.73;3.70;;;21.80;99.90;;;;;;5025391;28;20557;-80
2022/05/11 08:22:24;;;;;;;5.47;3.60;;;22.00;99.90;;;;;;5021406;28;20947;-80
2022/05/11 08:24:51;;;;;;;5.97;3.20;;;22.30;99.90;;;;;;5021995;28;20465;-80
2022/05/11 08:27:19;;;;;;;6.67;3.03;;;22.50;99.90;;;;;;5012088;28;20473;-78
2022/05/11 08:35:17;;;;;;;7.07;2.67;;;24.50;99.90;;;;;;5024350;28;20449;-80
2022/05/11 08:37:44;;;;;;;6.30;2.57;;;25.30;99.90;;;;;;5017491;28;21000;-79
2022/05/11 08:40:17;;;;;;;5.73;2.90;;;26.00;99.90;;;;;;5014610;28;20471;-80
2022/05/11 08:42:44;;;;;;;5.30;2.50;;;27.10;99.90;;;;;;5007881;28;20530;-80
2022/05/11 08:45:12;;;;;;;4.13;2.03;;;28.40;99.90;;;;;;5007773;28;20493;-82
2022/05/11 08:47:45;;;;;;;9.10;1.80;;;29.70;99.90;;;;;;5014247;28;20477;-80
2022/05/11 08:50:16;;;;;;;6.63;2.30;;;29.60;99.90;;;;;;5014351;28;20454;-81
2022/05/11 08:52:50;;;;;;;4.30;2.40;;;30.50;99.90;;;;;;5015797;28;20453;-80
2022/05/11 08:55:30;;;;;;;5.10;2.53;;;31.10;99.90;;;;;;5017898;28;20489;-79
2022/05/11 08:57:58;;;;;;;3.50;1.90;;;31.10;99.90;;;;;;5012376;28;20576;-78
2022/05/11 09:00:25;;;;;;;2.90;2.03;;;31.50;99.90;;;;;;5020854;28;20450;-81
2022/05/11 09:02:56;;;;;;;3.27;1.87;;;32.00;99.00;;;;;;5086100;22;20499;-79
2022/05/11 09:05:27;;;;;;;3.47;2.00;;;32.10;96.40;;;;;;5075925;28;20564;-81
2022/05/11 09:07:56;;;;;;;5.77;2.23;;;32.20;95.00;;;;;;5061851;28;20895;-80
2022/05/11 09:10:25;;;;;;;4.10;2.40;;;33.00;94.60;;;;;;5055670;28;20943;-80
2022/05/11 09:12:54;;;;;;;2.87;1.37;;;34.10;91.80;;;;;;5051738;28;20460;-80
2022/05/11 09:15:21;;;;;;;3.33;1.70;;;34.70;90.80;;;;;;5055287;28;20853;-82
2022/05/11 09:17:48;;;;;;;5.30;2.33;;;35.80;91.10;;;;;;5055907;28;20831;-81
2022/05/11 09:20:20;;;;;;;5.10;2.30;;;36.50;83.70;;;;;;5055039;28;20455;-81
2022/05/11 09:23:01;;;;;;;6.10;2.13;;;35.70;76.90;;;;;;5055102;28;20494;-81
2022/05/11 09:25:31;;;;;;;3.50;1.40;;;35.40;74.80;;;;;;5054801;28;20913;-81
2022/05/11 09:28:13;;;;;;;3.23;1.67;;;36.40;78.70;;;;;;5056828;28;20467;-80
2022/05/11 09:30:55;;;;;;;4.90;1.80;;;36.50;78.40;;;;;;5057183;28;20470;-83
2022/05/11 09:33:24;;;;;;;3.87;1.70;;;36.50;74.10;;;;;;5054947;28;20558;-82
2022/05/11 09:35:53;;;;;;;6.63;3.40;;;36.40;71.80;;;;;;5054330;28;20447;-81
2022/05/11 09:38:35;;;;;;;3.37;1.87;;;35.80;66.70;;;;;;5056246;28;20989;-80
2022/05/11 09:41:09;;;;;;;3.83;1.97;;;36.50;73.00;;;;;;5056057;28;20448;-81
2022/05/11 09:43:41;;;;;;;4.70;2.07;;;36.70;70.00;;;;;;5056967;28;20522;-81
2022/05/11 09:46:29;;;;;;;4.17;2.13;;;36.50;64.30;;;;;;5056357;28;20456;-83
2022/05/11 09:49:05;;;;;;;8.53;2.93;;;36.00;63.60;;;;;;5055945;28;20455;-82
2022/05/11 09:51:43;;;;;;;5.17;1.97;;;36.40;63.10;;;;;;5055210;28;21072;-82
2022/05/11 09:54:22;;;;;;;3.20;1.83;;;36.60;62.00;;;;;;5051266;28;20559;-78
2022/05/11 09:56:56;;;;;;;4.13;2.50;;;36.70;61.80;;;;;;5057966;28;20535;-80
2022/05/11 09:59:29;;;;;;;4.40;2.33;;;37.20;60.00;;;;;;5050845;28;20455;-77
2022/05/11 10:02:02;;;;;;;2.87;2.03;;;37.00;60.50;;;;;;5056337;28;20475;-78
2022/05/11 10:04:38;;;;;;;3.67;1.87;;;37.00;60.80;;;;;;5053631;28;20539;-77
2022/05/11 10:07:10;;;;;;;4.77;2.67;;;37.90;62.70;;;;;;5052237;28;20978;-76
2022/05/11 10:09:44;;;;;;;4.10;2.30;;;38.10;60.50;;;;;;5045655;28;20547;-78
2022/05/11 10:12:16;;;;;;;3.10;1.80;;;39.60;58.20;;;;;;5051796;28;21015;-77
2022/05/11 10:23:10;;;;;;;6.03;2.43;;;37.30;56.00;;;;;;5054467;28;20553;-83
2022/05/11 10:25:40;;;;;;;3.43;1.67;;;38.40;55.60;;;;;;5056015;28;20459;-82
2022/05/11 10:28:16;;;;;;;4.47;2.20;;;39.00;59.10;;;;;;5056211;28;20462;-83
2022/05/11 10:30:50;;;;;;;5.13;2.50;;;39.40;55.20;;;;;;5055668;28;20456;-81
2022/05/11 10:33:31;;;;;;;4.80;2.40;;;39.50;54.70;;;;;;5053487;28;20474;-83
2022/05/11 10:36:06;;;;;;;6.70;2.53;;;40.00;54.30;;;;;;5057344;28;20456;-81
2022/05/11 10:38:50;;;;;;;5.57;2.33;;;39.20;53.60;;;;;;5075544;28;20439;-81
2022/05/11 10:41:29;;;;;;;8.37;2.50;;;39.50;53.70;;;;;;5080464;28;20452;-84
2022/05/11 10:44:08;;;;;;;7.53;2.30;;;38.60;51.80;;;;;;5072169;28;20503;-80
2022/05/11 10:46:38;;;;;;;3.97;2.53;;;38.60;52.90;;;;;;5075638;28;20455;-81
2022/05/11 10:49:37;;;;;;;5.80;2.90;;;38.50;51.60;;;;;;5070128;28;20530;-82
2022/05/11 10:52:27;;;;;;;6.33;2.60;;;38.90;53.00;;;;;;5071141;28;20478;-82
2022/05/11 10:55:08;;;;;;;7.17;2.90;;;38.60;52.80;;;;;;5062983;28;20523;-80
2022/05/11 10:57:41;;;;;;;6.30;2.90;;;37.80;52.00;;;;;;5071330;28;20452;-81
2022/05/11 11:00:12;;;;;;;6.47;2.60;;;38.80;53.60;;;;;;5053935;28;20450;-80
2022/05/11 11:03:04;;;;;;;5.50;2.50;;;39.90;51.90;;;;;;5064716;28;20582;-83
2022/05/11 11:05:43;;;;;;;4.83;2.33;;;39.60;53.00;;;;;;5053414;28;20475;-82
2022/05/11 11:08:19;;;;;;;4.97;2.40;;;39.80;51.40;;;;;;5060609;28;20538;-84
2022/05/11 11:10:53;;;;;;;3.60;2.00;;;40.40;52.10;;;;;;5060496;28;20962;-81
2022/05/11 11:13:42;;;;;;;3.27;2.33;;;41.50;51.50;;;;;;5059858;28;20467;-81
2022/05/11 11:16:13;;;;;;;3.80;1.93;;;41.30;49.90;;;;;;5059235;28;20947;-84
2022/05/11 11:18:42;;;;;;;6.53;2.20;;;41.20;52.70;;;;;;5060007;28;20502;-82
2022/05/11 11:21:11;;;;;;;7.40;2.73;;;41.50;51.60;;;;;;5059912;28;20948;-81
2022/05/11 11:23:40;;;;;;;2.93;1.80;;;41.90;49.30;;;;;;5060592;28;20488;-80
2022/05/11 11:26:10;;;;;;;3.57;1.93;;;41.70;50.80;;;;;;5069217;28;20451;-79
2022/05/11 11:29:18;;;;;;;3.53;1.90;;;42.60;48.30;;;;;;5078664;28;20454;-79
2022/05/11 11:32:01;;;;;;;5.97;2.10;;;42.00;48.90;;;;;;5038848;28;20502;-81
2022/05/11 11:34:31;;;;;;;5.47;2.27;;;42.10;48.70;;;;;;5046115;28;20444;-81
2022/05/11 11:36:58;;;;;;;9.13;2.50;;;41.90;47.80;;;;;;5056558;28;20467;-79
2022/05/11 11:39:52;;;;;;;4.80;2.23;;;42.40;48.10;;;;;;5058183;28;20471;-82
2022/05/11 11:42:38;;;;;;;5.40;2.20;;;42.20;47.70;;;;;;5058273;28;20472;-82
2022/05/11 11:45:07;;;;;;;4.50;2.17;;;40.80;45.30;;;;;;5056653;28;20573;-77
2022/05/11 11:47:37;;;;;;;5.30;2.47;;;41.30;47.90;;;;;;5057048;28;20454;-80
2022/05/11 11:50:10;;;;;;;6.33;3.20;;;40.90;46.50;;;;;;5057344;28;20491;-79
2022/05/11 11:52:39;;;;;;;4.90;2.00;;;40.40;45.70;;;;;;5058478;28;20503;-81
2022/05/11 11:55:22;;;;;;;4.63;1.97;;;41.40;46.60;;;;;;5056588;28;20448;-81
2022/05/11 11:57:55;;;;;;;5.53;2.27;;;40.70;47.00;;;;;;5057580;28;20462;-81
2022/05/11 12:00:59;;;;;;;6.00;2.40;;;40.60;46.10;;;;;;5045261;28;20539;-79
2022/05/11 12:03:33;;;;;;;4.83;2.80;;;41.40;46.70;;;;;;5046145;28;20491;-80
2022/05/11 12:15:01;;;;;;;3.93;1.97;;;41.50;45.10;;;;;;5050683;28;20451;-77
2022/05/11 12:17:08;;;;;;;3.90;2.20;;;41.70;45.20;;;;;;5050158;28;20442;-79
2022/05/11 12:19:37;;;;;;;4.00;2.20;;;42.40;44.50;;;;;;5052142;28;20454;-78
2022/05/11 12:22:12;;;;;;;5.03;2.63;;;43.00;45.40;;;;;;5048652;28;20474;-78
2022/05/11 12:24:41;;;;;;;4.20;2.10;;;43.20;43.80;;;;;;5047216;28;20761;-77
2022/05/11 12:27:22;;;;;;;8.10;2.00;;;42.90;43.70;;;;;;5048050;28;20461;-77
2022/05/11 12:29:57;;;;;;;3.60;1.60;;;43.20;41.90;;;;;;5051585;28;20464;-78
2022/05/11 12:32:28;;;;;;;3.20;1.67;;;43.50;44.40;;;;;;5044493;28;20563;-79
2022/05/11 12:34:57;;;;;;;3.30;1.93;;;43.10;42.70;;;;;;5045635;28;20483;-78
2022/05/11 12:37:26;;;;;;;5.70;2.47;;;43.30;41.40;;;;;;5047396;28;20448;-78
2022/05/11 12:39:59;;;;;;;4.03;2.30;;;43.60;43.20;;;;;;5052423;28;20535;-77
2022/05/11 12:42:31;;;;;;;6.07;1.90;;;43.60;42.60;;;;;;5053318;28;20460;-78
2022/05/11 12:44:59;;;;;;;4.53;2.00;;;44.00;43.70;;;;;;5053302;28;20574;-77
2022/05/11 12:47:27;;;;;;;6.20;1.90;;;43.70;41.50;;;;;;5053631;28;20966;-80
2022/05/11 12:49:55;;;;;;;3.97;1.80;;;43.70;41.60;;;;;;5046089;28;20532;-82
2022/05/11 12:52:26;;;;;;;2.83;1.70;;;43.70;42.60;;;;;;5047381;28;20468;-78
2022/05/11 12:54:59;;;;;;;3.83;2.30;;;43.40;41.20;;;;;;5049046;28;20447;-82
2022/05/11 12:57:36;;;;;;;4.10;1.90;;;43.90;41.60;;;;;;5052390;28;20448;-81
2022/05/11 13:00:16;;;;;;;3.73;2.10;;;42.80;40.50;;;;;;5061319;28;20792;-79
2022/05/11 13:02:44;;;;;;;12.23;2.77;;;42.00;41.30;;;;;;5051593;28;20533;-80
2022/05/11 13:05:15;;;;;;;4.80;2.03;;;41.30;41.10;;;;;;5050732;28;20487;-81
2022/05/11 13:07:47;;;;;;;6.17;2.47;;;42.40;41.10;;;;;;5051380;28;20552;-81
2022/05/11 13:10:17;;;;;;;3.83;2.03;;;42.10;41.30;;;;;;5044183;28;20448;-82
2022/05/11 13:12:49;;;;;;;4.03;2.20;;;42.20;43.10;;;;;;5046229;28;20563;-78
2022/05/11 13:15:30;;;;;;;3.40;1.70;;;43.60;42.60;;;;;;5054545;28;20447;-79
2022/05/11 13:17:57;;;;;;;3.23;1.93;;;43.60;42.70;;;;;;5058275;28;20458;-81
2022/05/11 13:20:26;;;;;;;5.13;2.00;;;44.50;43.60;;;;;;5041361;28;20460;-80
2022/05/11 13:22:55;;;;;;;4.60;2.37;;;43.90;41.90;;;;;;5058235;28;20476;-78
2022/05/11 13:25:38;;;;;;;4.60;2.30;;;43.30;42.30;;;;;;5065298;28;20475;-83
2022/05/11 13:28:14;;;;;;;3.97;2.40;;;43.50;42.30;;;;;;5074251;28;20441;-79
2022/05/11 13:30:46;;;;;;;7.53;2.20;;;43.70;42.90;;;;;;5055557;28;20447;-78
2022/05/11 13:33:44;;;;;;;4.70;2.40;;;43.80;40.60;;;;;;5056905;28;20822;-82
2022/05/11 13:36:19;;;;;;;7.80;2.00;;;41.60;99.90;;;;;;4973157;28;20459;-80
2022/05/11 13:38:59;;;;;;;3.80;1.83;;;41.70;99.90;;;;;;5041175;28;20997;-80